sensor_id;sensor_type;location;lat;lon;timestamp;P1;durP1;ratioP1;P2;durP2;ratioP2
35646;SDS011;28680;45.642;13.756;2023-04-22T00:00:57;5.45;;;4.50;;
35646;SDS011;28680;45.642;13.756;2023-04-22T00:03:24;9.15;;;5.13;;
35646;SDS011;28680;45.642;13.756;2023-04-22T00:05:51;5.38;;;4.40;;
35646;SDS011;28680;45.642;13.756;2023-04-22T00:08:17;6.13;;;4.55;;
35646;SDS011;28680;45.642;13.756;2023-04-22T00:10:43;8.93;;;4.93;;
35646;SDS011;28680;45.642;13.756;2023-04-22T00:13:09;7.78;;;5.00;;
35646;SDS011;28680;45.642;13.756;2023-04-22T00:15:35;9.15;;;5.25;;
35646;SDS011;28680;45.642;13.756;2023-04-22T00:18:01;9.57;;;4.97;;
35646;SDS011;28680;45.642;13.756;2023-04-22T00:20:27;9.68;;;4.80;;
35646;SDS011;28680;45.642;13.756;2023-04-22T00:22:56;7.65;;;4.80;;
35646;SDS011;28680;45.642;13.756;2023-04-22T00:25:22;10.27;;;5.35;;
35646;SDS011;28680;45.642;13.756;2023-04-22T00:27:48;8.85;;;5.32;;
35646;SDS011;28680;45.642;13.756;2023-04-22T00:30:14;8.52;;;5.55;;
35646;SDS011;28680;45.642;13.756;2023-04-22T00:32:39;8.68;;;5.43;;
35646;SDS011;28680;45.642;13.756;2023-04-22T00:35:05;9.80;;;5.55;;
35646;SDS011;28680;45.642;13.756;2023-04-22T00:37:32;8.73;;;5.80;;
35646;SDS011;28680;45.642;13.756;2023-04-22T00:39:58;7.65;;;5.05;;
35646;SDS011;28680;45.642;13.756;2023-04-22T00:42:24;9.07;;;5.40;;
35646;SDS011;28680;45.642;13.756;2023-04-22T00:44:51;9.57;;;6.00;;
35646;SDS011;28680;45.642;13.756;2023-04-22T00:47:17;16.48;;;6.53;;
35646;SDS011;28680;45.642;13.756;2023-04-22T00:49:44;11.07;;;6.07;;
35646;SDS011;28680;45.642;13.756;2023-04-22T00:52:12;12.27;;;6.25;;
35646;SDS011;28680;45.642;13.756;2023-04-22T00:54:38;10.18;;;5.85;;
35646;SDS011;28680;45.642;13.756;2023-04-22T00:57:04;7.63;;;5.57;;
35646;SDS011;28680;45.642;13.756;2023-04-22T00:59:30;8.18;;;6.15;;
35646;SDS011;28680;45.642;13.756;2023-04-22T01:01:57;8.05;;;6.22;;
35646;SDS011;28680;45.642;13.756;2023-04-22T01:04:24;9.73;;;5.90;;
35646;SDS011;28680;45.642;13.756;2023-04-22T01:06:50;11.70;;;6.88;;
35646;SDS011;28680;45.642;13.756;2023-04-22T01:09:17;11.52;;;6.40;;
35646;SDS011;28680;45.642;13.756;2023-04-22T01:11:46;8.73;;;6.00;;
35646;SDS011;28680;45.642;13.756;2023-04-22T01:14:12;9.70;;;6.20;;
35646;SDS011;28680;45.642;13.756;2023-04-22T01:16:39;12.27;;;6.30;;
35646;SDS011;28680;45.642;13.756;2023-04-22T01:19:07;9.15;;;5.97;;
35646;SDS011;28680;45.642;13.756;2023-04-22T01:21:35;10.07;;;6.18;;
35646;SDS011;28680;45.642;13.756;2023-04-22T01:24:03;8.82;;;6.32;;
35646;SDS011;28680;45.642;13.756;2023-04-22T01:26:29;7.78;;;6.07;;
35646;SDS011;28680;45.642;13.756;2023-04-22T01:28:55;10.32;;;6.25;;
35646;SDS011;28680;45.642;13.756;2023-04-22T01:31:21;8.45;;;6.20;;
35646;SDS011;28680;45.642;13.756;2023-04-22T01:33:47;9.38;;;5.45;;
35646;SDS011;28680;45.642;13.756;2023-04-22T01:36:14;7.18;;;5.13;;
35646;SDS011;28680;45.642;13.756;2023-04-22T01:38:40;7.13;;;5.45;;
35646;SDS011;28680;45.642;13.756;2023-04-22T01:41:06;9.20;;;5.32;;
35646;SDS011;28680;45.642;13.756;2023-04-22T01:43:33;8.18;;;5.22;;
35646;SDS011;28680;45.642;13.756;2023-04-22T01:46:02;11.95;;;6.18;;
35646;SDS011;28680;45.642;13.756;2023-04-22T01:48:29;7.55;;;5.38;;
35646;SDS011;28680;45.642;13.756;2023-04-22T01:50:55;8.02;;;5.38;;
35646;SDS011;28680;45.642;13.756;2023-04-22T01:53:21;11.40;;;5.65;;
35646;SDS011;28680;45.642;13.756;2023-04-22T01:55:47;7.85;;;6.13;;
35646;SDS011;28680;45.642;13.756;2023-04-22T01:58:13;9.18;;;6.15;;
35646;SDS011;28680;45.642;13.756;2023-04-22T02:00:39;7.18;;;5.90;;
35646;SDS011;28680;45.642;13.756;2023-04-22T02:03:04;10.18;;;6.30;;
35646;SDS011;28680;45.642;13.756;2023-04-22T02:05:31;10.40;;;6.60;;
35646;SDS011;28680;45.642;13.756;2023-04-22T02:07:57;12.32;;;7.00;;
35646;SDS011;28680;45.642;13.756;2023-04-22T02:10:22;9.73;;;6.13;;
35646;SDS011;28680;45.642;13.756;2023-04-22T02:12:48;9.05;;;6.03;;
35646;SDS011;28680;45.642;13.756;2023-04-22T02:15:14;7.28;;;5.50;;
35646;SDS011;28680;45.642;13.756;2023-04-22T02:17:40;8.32;;;5.60;;
35646;SDS011;28680;45.642;13.756;2023-04-22T02:20:07;8.77;;;5.32;;
35646;SDS011;28680;45.642;13.756;2023-04-22T02:22:35;9.75;;;5.40;;
35646;SDS011;28680;45.642;13.756;2023-04-22T02:25:02;9.95;;;5.53;;
35646;SDS011;28680;45.642;13.756;2023-04-22T02:27:29;9.10;;;4.82;;
35646;SDS011;28680;45.642;13.756;2023-04-22T02:29:55;7.10;;;5.20;;
35646;SDS011;28680;45.642;13.756;2023-04-22T02:32:21;8.50;;;5.10;;
35646;SDS011;28680;45.642;13.756;2023-04-22T02:34:47;6.95;;;5.20;;
35646;SDS011;28680;45.642;13.756;2023-04-22T02:37:13;6.93;;;4.97;;
35646;SDS011;28680;45.642;13.756;2023-04-22T02:39:39;7.07;;;4.88;;
35646;SDS011;28680;45.642;13.756;2023-04-22T02:42:05;9.18;;;5.18;;
35646;SDS011;28680;45.642;13.756;2023-04-22T02:44:30;6.45;;;4.82;;
35646;SDS011;28680;45.642;13.756;2023-04-22T02:46:56;6.07;;;4.70;;
35646;SDS011;28680;45.642;13.756;2023-04-22T02:49:22;7.25;;;4.65;;
35646;SDS011;28680;45.642;13.756;2023-04-22T02:51:48;7.30;;;5.35;;
35646;SDS011;28680;45.642;13.756;2023-04-22T02:54:14;7.60;;;5.20;;
35646;SDS011;28680;45.642;13.756;2023-04-22T02:56:40;7.53;;;5.25;;
35646;SDS011;28680;45.642;13.756;2023-04-22T02:59:06;5.97;;;4.45;;
35646;SDS011;28680;45.642;13.756;2023-04-22T03:01:32;6.75;;;5.13;;
35646;SDS011;28680;45.642;13.756;2023-04-22T03:03:58;7.60;;;5.03;;
35646;SDS011;28680;45.642;13.756;2023-04-22T03:06:24;6.60;;;4.90;;
35646;SDS011;28680;45.642;13.756;2023-04-22T03:08:49;5.93;;;4.50;;
35646;SDS011;28680;45.642;13.756;2023-04-22T03:11:15;6.65;;;4.38;;
35646;SDS011;28680;45.642;13.756;2023-04-22T03:13:41;6.93;;;4.70;;
35646;SDS011;28680;45.642;13.756;2023-04-22T03:16:07;8.93;;;4.75;;
35646;SDS011;28680;45.642;13.756;2023-04-22T03:18:33;4.65;;;3.97;;
35646;SDS011;28680;45.642;13.756;2023-04-22T03:20:59;7.78;;;4.85;;
35646;SDS011;28680;45.642;13.756;2023-04-22T03:23:25;6.15;;;5.00;;
35646;SDS011;28680;45.642;13.756;2023-04-22T03:25:51;7.15;;;4.82;;
35646;SDS011;28680;45.642;13.756;2023-04-22T03:28:17;5.68;;;4.80;;
35646;SDS011;28680;45.642;13.756;2023-04-22T03:30:43;6.40;;;5.05;;
35646;SDS011;28680;45.642;13.756;2023-04-22T03:33:09;7.97;;;4.88;;
35646;SDS011;28680;45.642;13.756;2023-04-22T03:35:35;7.85;;;5.40;;
35646;SDS011;28680;45.642;13.756;2023-04-22T03:38:01;5.45;;;4.53;;
35646;SDS011;28680;45.642;13.756;2023-04-22T03:40:27;6.63;;;4.50;;
35646;SDS011;28680;45.642;13.756;2023-04-22T03:42:53;9.18;;;5.38;;
35646;SDS011;28680;45.642;13.756;2023-04-22T03:45:19;8.77;;;4.93;;
35646;SDS011;28680;45.642;13.756;2023-04-22T03:47:45;5.85;;;4.93;;
35646;SDS011;28680;45.642;13.756;2023-04-22T03:50:11;6.13;;;4.90;;
35646;SDS011;28680;45.642;13.756;2023-04-22T03:52:37;7.03;;;4.93;;
35646;SDS011;28680;45.642;13.756;2023-04-22T03:55:02;8.27;;;5.35;;
35646;SDS011;28680;45.642;13.756;2023-04-22T03:57:29;8.27;;;5.32;;
35646;SDS011;28680;45.642;13.756;2023-04-22T03:59:54;6.95;;;4.80;;
35646;SDS011;28680;45.642;13.756;2023-04-22T04:02:20;6.32;;;4.95;;
35646;SDS011;28680;45.642;13.756;2023-04-22T04:04:46;13.77;;;5.15;;
35646;SDS011;28680;45.642;13.756;2023-04-22T04:07:12;8.75;;;5.03;;
35646;SDS011;28680;45.642;13.756;2023-04-22T04:09:38;8.30;;;5.55;;
35646;SDS011;28680;45.642;13.756;2023-04-22T04:12:04;6.20;;;5.03;;
35646;SDS011;28680;45.642;13.756;2023-04-22T04:14:30;8.35;;;5.13;;
35646;SDS011;28680;45.642;13.756;2023-04-22T04:16:56;7.00;;;4.68;;
35646;SDS011;28680;45.642;13.756;2023-04-22T04:19:22;7.85;;;5.22;;
35646;SDS011;28680;45.642;13.756;2023-04-22T04:21:48;8.10;;;5.68;;
35646;SDS011;28680;45.642;13.756;2023-04-22T04:24:15;8.10;;;5.32;;
35646;SDS011;28680;45.642;13.756;2023-04-22T04:26:41;10.93;;;5.85;;
35646;SDS011;28680;45.642;13.756;2023-04-22T04:29:07;8.20;;;5.43;;
35646;SDS011;28680;45.642;13.756;2023-04-22T04:31:33;6.25;;;5.47;;
35646;SDS011;28680;45.642;13.756;2023-04-22T04:33:59;8.73;;;5.80;;
35646;SDS011;28680;45.642;13.756;2023-04-22T04:36:25;7.47;;;5.85;;
35646;SDS011;28680;45.642;13.756;2023-04-22T04:38:53;7.47;;;5.40;;
35646;SDS011;28680;45.642;13.756;2023-04-22T04:41:21;10.63;;;6.00;;
35646;SDS011;28680;45.642;13.756;2023-04-22T04:43:47;9.50;;;5.97;;
35646;SDS011;28680;45.642;13.756;2023-04-22T04:46:14;8.82;;;4.97;;
35646;SDS011;28680;45.642;13.756;2023-04-22T04:48:40;7.30;;;5.65;;
35646;SDS011;28680;45.642;13.756;2023-04-22T04:51:07;7.47;;;5.53;;
35646;SDS011;28680;45.642;13.756;2023-04-22T04:53:34;6.72;;;5.05;;
35646;SDS011;28680;45.642;13.756;2023-04-22T04:55:59;6.70;;;5.25;;
35646;SDS011;28680;45.642;13.756;2023-04-22T04:58:25;7.90;;;5.28;;
35646;SDS011;28680;45.642;13.756;2023-04-22T05:00:51;7.47;;;5.10;;
35646;SDS011;28680;45.642;13.756;2023-04-22T05:03:17;7.10;;;5.25;;
35646;SDS011;28680;45.642;13.756;2023-04-22T05:05:43;11.50;;;5.78;;
35646;SDS011;28680;45.642;13.756;2023-04-22T05:08:12;12.43;;;6.25;;
35646;SDS011;28680;45.642;13.756;2023-04-22T05:10:38;9.40;;;5.80;;
35646;SDS011;28680;45.642;13.756;2023-04-22T05:13:04;10.60;;;6.72;;
35646;SDS011;28680;45.642;13.756;2023-04-22T05:15:30;11.40;;;6.70;;
35646;SDS011;28680;45.642;13.756;2023-04-22T05:17:56;8.90;;;6.68;;
35646;SDS011;28680;45.642;13.756;2023-04-22T05:20:22;10.88;;;6.85;;
35646;SDS011;28680;45.642;13.756;2023-04-22T05:22:48;8.80;;;6.38;;
35646;SDS011;28680;45.642;13.756;2023-04-22T05:25:13;9.82;;;6.85;;
35646;SDS011;28680;45.642;13.756;2023-04-22T05:27:40;10.85;;;7.07;;
35646;SDS011;28680;45.642;13.756;2023-04-22T05:30:06;12.20;;;6.70;;
35646;SDS011;28680;45.642;13.756;2023-04-22T05:32:32;11.77;;;6.97;;
35646;SDS011;28680;45.642;13.756;2023-04-22T05:34:58;9.30;;;6.47;;
35646;SDS011;28680;45.642;13.756;2023-04-22T05:37:24;10.30;;;6.70;;
35646;SDS011;28680;45.642;13.756;2023-04-22T05:39:50;14.57;;;6.68;;
35646;SDS011;28680;45.642;13.756;2023-04-22T05:42:16;12.77;;;6.60;;
35646;SDS011;28680;45.642;13.756;2023-04-22T05:44:43;10.98;;;6.43;;
35646;SDS011;28680;45.642;13.756;2023-04-22T05:47:09;11.43;;;6.57;;
35646;SDS011;28680;45.642;13.756;2023-04-22T05:49:34;12.68;;;7.47;;
35646;SDS011;28680;45.642;13.756;2023-04-22T05:52:02;11.90;;;7.35;;
35646;SDS011;28680;45.642;13.756;2023-04-22T05:54:27;11.85;;;7.15;;
35646;SDS011;28680;45.642;13.756;2023-04-22T05:56:54;11.65;;;6.97;;
35646;SDS011;28680;45.642;13.756;2023-04-22T05:59:20;10.32;;;6.55;;
35646;SDS011;28680;45.642;13.756;2023-04-22T06:01:46;9.90;;;7.20;;
35646;SDS011;28680;45.642;13.756;2023-04-22T06:04:12;10.45;;;7.10;;
35646;SDS011;28680;45.642;13.756;2023-04-22T06:06:38;8.63;;;6.53;;
35646;SDS011;28680;45.642;13.756;2023-04-22T06:09:04;12.32;;;6.47;;
35646;SDS011;28680;45.642;13.756;2023-04-22T06:11:31;8.30;;;5.88;;
35646;SDS011;28680;45.642;13.756;2023-04-22T06:13:57;10.20;;;5.90;;
35646;SDS011;28680;45.642;13.756;2023-04-22T06:16:23;7.85;;;5.88;;
35646;SDS011;28680;45.642;13.756;2023-04-22T06:18:50;8.45;;;5.65;;
35646;SDS011;28680;45.642;13.756;2023-04-22T06:21:16;9.32;;;5.68;;
35646;SDS011;28680;45.642;13.756;2023-04-22T06:23:41;7.57;;;5.40;;
35646;SDS011;28680;45.642;13.756;2023-04-22T06:26:07;9.55;;;5.88;;
35646;SDS011;28680;45.642;13.756;2023-04-22T06:28:33;8.43;;;5.93;;
35646;SDS011;28680;45.642;13.756;2023-04-22T06:31:00;14.55;;;6.75;;
35646;SDS011;28680;45.642;13.756;2023-04-22T06:33:26;32.33;;;7.65;;
35646;SDS011;28680;45.642;13.756;2023-04-22T06:35:52;23.90;;;9.10;;
35646;SDS011;28680;45.642;13.756;2023-04-22T06:38:18;8.82;;;5.80;;
35646;SDS011;28680;45.642;13.756;2023-04-22T06:40:44;8.93;;;5.22;;
35646;SDS011;28680;45.642;13.756;2023-04-22T06:43:10;7.75;;;6.05;;
35646;SDS011;28680;45.642;13.756;2023-04-22T06:45:36;9.20;;;5.95;;
35646;SDS011;28680;45.642;13.756;2023-04-22T06:48:02;7.05;;;4.93;;
35646;SDS011;28680;45.642;13.756;2023-04-22T06:50:28;7.57;;;5.75;;
35646;SDS011;28680;45.642;13.756;2023-04-22T06:52:54;7.60;;;5.80;;
35646;SDS011;28680;45.642;13.756;2023-04-22T06:55:20;10.45;;;5.90;;
35646;SDS011;28680;45.642;13.756;2023-04-22T06:57:46;8.85;;;5.90;;
35646;SDS011;28680;45.642;13.756;2023-04-22T07:00:12;7.70;;;6.22;;
35646;SDS011;28680;45.642;13.756;2023-04-22T07:02:38;25.13;;;7.22;;
35646;SDS011;28680;45.642;13.756;2023-04-22T07:05:04;10.32;;;6.30;;
35646;SDS011;28680;45.642;13.756;2023-04-22T07:07:30;9.50;;;6.78;;
35646;SDS011;28680;45.642;13.756;2023-04-22T07:09:56;6.85;;;6.00;;
35646;SDS011;28680;45.642;13.756;2023-04-22T07:12:22;10.73;;;6.03;;
35646;SDS011;28680;45.642;13.756;2023-04-22T07:14:49;8.57;;;6.03;;
35646;SDS011;28680;45.642;13.756;2023-04-22T07:17:15;11.68;;;6.32;;
35646;SDS011;28680;45.642;13.756;2023-04-22T07:19:43;8.10;;;5.80;;
35646;SDS011;28680;45.642;13.756;2023-04-22T07:22:09;10.95;;;6.13;;
35646;SDS011;28680;45.642;13.756;2023-04-22T07:24:35;13.38;;;6.60;;
35646;SDS011;28680;45.642;13.756;2023-04-22T07:27:01;11.02;;;6.28;;
35646;SDS011;28680;45.642;13.756;2023-04-22T07:29:27;9.32;;;6.00;;
35646;SDS011;28680;45.642;13.756;2023-04-22T07:31:53;7.57;;;5.70;;
35646;SDS011;28680;45.642;13.756;2023-04-22T07:34:19;7.80;;;5.22;;
35646;SDS011;28680;45.642;13.756;2023-04-22T07:36:45;10.43;;;5.60;;
35646;SDS011;28680;45.642;13.756;2023-04-22T07:39:11;7.78;;;5.13;;
35646;SDS011;28680;45.642;13.756;2023-04-22T07:41:37;8.80;;;4.40;;
35646;SDS011;28680;45.642;13.756;2023-04-22T07:44:03;6.28;;;3.63;;
35646;SDS011;28680;45.642;13.756;2023-04-22T07:46:29;4.82;;;3.85;;
35646;SDS011;28680;45.642;13.756;2023-04-22T07:48:55;6.00;;;4.22;;
35646;SDS011;28680;45.642;13.756;2023-04-22T07:51:21;5.75;;;4.53;;
35646;SDS011;28680;45.642;13.756;2023-04-22T07:53:47;7.35;;;5.07;;
35646;SDS011;28680;45.642;13.756;2023-04-22T07:56:13;8.50;;;5.30;;
35646;SDS011;28680;45.642;13.756;2023-04-22T07:58:39;5.18;;;3.60;;
35646;SDS011;28680;45.642;13.756;2023-04-22T08:01:05;5.47;;;4.53;;
35646;SDS011;28680;45.642;13.756;2023-04-22T08:03:31;5.93;;;4.32;;
35646;SDS011;28680;45.642;13.756;2023-04-22T08:05:57;5.78;;;4.63;;
35646;SDS011;28680;45.642;13.756;2023-04-22T08:08:24;6.32;;;4.60;;
35646;SDS011;28680;45.642;13.756;2023-04-22T08:10:50;8.02;;;4.57;;
35646;SDS011;28680;45.642;13.756;2023-04-22T08:13:16;6.65;;;3.70;;
35646;SDS011;28680;45.642;13.756;2023-04-22T08:15:42;5.88;;;3.42;;
35646;SDS011;28680;45.642;13.756;2023-04-22T08:18:08;6.65;;;4.00;;
35646;SDS011;28680;45.642;13.756;2023-04-22T08:20:33;7.28;;;3.63;;
35646;SDS011;28680;45.642;13.756;2023-04-22T08:22:59;4.70;;;4.18;;
35646;SDS011;28680;45.642;13.756;2023-04-22T08:25:26;7.63;;;4.38;;
35646;SDS011;28680;45.642;13.756;2023-04-22T08:27:52;5.35;;;3.83;;
35646;SDS011;28680;45.642;13.756;2023-04-22T08:30:18;6.68;;;4.63;;
35646;SDS011;28680;45.642;13.756;2023-04-22T08:32:44;6.68;;;3.53;;
35646;SDS011;28680;45.642;13.756;2023-04-22T08:35:10;4.82;;;3.55;;
35646;SDS011;28680;45.642;13.756;2023-04-22T08:37:36;5.10;;;3.83;;
35646;SDS011;28680;45.642;13.756;2023-04-22T08:40:04;8.27;;;4.50;;
35646;SDS011;28680;45.642;13.756;2023-04-22T08:42:32;5.47;;;4.20;;
35646;SDS011;28680;45.642;13.756;2023-04-22T08:44:58;5.32;;;4.28;;
35646;SDS011;28680;45.642;13.756;2023-04-22T08:47:26;5.85;;;4.40;;
35646;SDS011;28680;45.642;13.756;2023-04-22T08:49:53;5.80;;;4.25;;
35646;SDS011;28680;45.642;13.756;2023-04-22T08:52:20;5.97;;;4.20;;
35646;SDS011;28680;45.642;13.756;2023-04-22T08:54:46;4.95;;;4.05;;
35646;SDS011;28680;45.642;13.756;2023-04-22T08:57:12;6.60;;;3.83;;
35646;SDS011;28680;45.642;13.756;2023-04-22T08:59:40;4.80;;;4.13;;
35646;SDS011;28680;45.642;13.756;2023-04-22T09:02:06;7.80;;;4.05;;
35646;SDS011;28680;45.642;13.756;2023-04-22T09:04:41;6.13;;;3.63;;
35646;SDS011;28680;45.642;13.756;2023-04-22T09:07:08;4.47;;;3.60;;
35646;SDS011;28680;45.642;13.756;2023-04-22T09:09:36;6.05;;;3.50;;
35646;SDS011;28680;45.642;13.756;2023-04-22T09:12:02;5.38;;;3.28;;
35646;SDS011;28680;45.642;13.756;2023-04-22T09:14:30;5.50;;;3.67;;
35646;SDS011;28680;45.642;13.756;2023-04-22T09:16:57;5.00;;;2.97;;
35646;SDS011;28680;45.642;13.756;2023-04-22T09:19:23;5.72;;;3.22;;
35646;SDS011;28680;45.642;13.756;2023-04-22T09:21:49;8.25;;;3.67;;
35646;SDS011;28680;45.642;13.756;2023-04-22T09:24:16;5.95;;;3.33;;
35646;SDS011;28680;45.642;13.756;2023-04-22T09:26:44;10.55;;;3.42;;
35646;SDS011;28680;45.642;13.756;2023-04-22T09:29:12;6.10;;;3.63;;
35646;SDS011;28680;45.642;13.756;2023-04-22T09:31:40;3.88;;;3.40;;
35646;SDS011;28680;45.642;13.756;2023-04-22T09:34:07;5.35;;;4.10;;
35646;SDS011;28680;45.642;13.756;2023-04-22T09:36:33;6.97;;;3.25;;
35646;SDS011;28680;45.642;13.756;2023-04-22T09:39:05;6.53;;;3.63;;
35646;SDS011;28680;45.642;13.756;2023-04-22T09:41:33;5.35;;;3.50;;
35646;SDS011;28680;45.642;13.756;2023-04-22T09:44:01;4.82;;;3.38;;
35646;SDS011;28680;45.642;13.756;2023-04-22T09:46:32;5.88;;;3.20;;
35646;SDS011;28680;45.642;13.756;2023-04-22T09:48:59;7.85;;;3.22;;
35646;SDS011;28680;45.642;13.756;2023-04-22T09:51:26;3.97;;;3.50;;
35646;SDS011;28680;45.642;13.756;2023-04-22T09:54:00;5.35;;;3.33;;
35646;SDS011;28680;45.642;13.756;2023-04-22T09:56:39;4.10;;;3.28;;
35646;SDS011;28680;45.642;13.756;2023-04-22T09:59:25;4.60;;;3.47;;
35646;SDS011;28680;45.642;13.756;2023-04-22T10:01:54;4.53;;;3.70;;
35646;SDS011;28680;45.642;13.756;2023-04-22T10:04:27;4.45;;;3.72;;
35646;SDS011;28680;45.642;13.756;2023-04-22T10:06:55;6.13;;;3.53;;
35646;SDS011;28680;45.642;13.756;2023-04-22T10:09:21;8.07;;;4.45;;
35646;SDS011;28680;45.642;13.756;2023-04-22T10:11:52;7.03;;;4.28;;
35646;SDS011;28680;45.642;13.756;2023-04-22T10:14:20;7.65;;;4.47;;
35646;SDS011;28680;45.642;13.756;2023-04-22T10:16:46;8.13;;;4.65;;
35646;SDS011;28680;45.642;13.756;2023-04-22T10:19:16;5.60;;;3.95;;
35646;SDS011;28680;45.642;13.756;2023-04-22T10:21:53;5.82;;;3.70;;
35646;SDS011;28680;45.642;13.756;2023-04-22T10:24:27;5.20;;;4.00;;
35646;SDS011;28680;45.642;13.756;2023-04-22T10:26:58;4.50;;;3.67;;
35646;SDS011;28680;45.642;13.756;2023-04-22T10:29:37;4.32;;;3.58;;
35646;SDS011;28680;45.642;13.756;2023-04-22T10:34:35;5.28;;;3.40;;
35646;SDS011;28680;45.642;13.756;2023-04-22T10:37:06;5.45;;;3.42;;
35646;SDS011;28680;45.642;13.756;2023-04-22T10:39:35;3.58;;;3.25;;
35646;SDS011;28680;45.642;13.756;2023-04-22T10:53:00;14.95;;;4.10;;
35646;SDS011;28680;45.642;13.756;2023-04-22T10:56:00;3.83;;;2.95;;
35646;SDS011;28680;45.642;13.756;2023-04-22T10:58:40;4.95;;;3.10;;
35646;SDS011;28680;45.642;13.756;2023-04-22T11:01:13;6.90;;;3.63;;
35646;SDS011;28680;45.642;13.756;2023-04-22T11:03:39;5.50;;;3.55;;
35646;SDS011;28680;45.642;13.756;2023-04-22T11:06:15;4.65;;;3.47;;
35646;SDS011;28680;45.642;13.756;2023-04-22T11:08:46;4.68;;;3.30;;
35646;SDS011;28680;45.642;13.756;2023-04-22T11:11:15;5.60;;;3.65;;
35646;SDS011;28680;45.642;13.756;2023-04-22T11:13:42;5.65;;;3.30;;
35646;SDS011;28680;45.642;13.756;2023-04-22T11:16:09;4.53;;;3.40;;
35646;SDS011;28680;45.642;13.756;2023-04-22T11:18:35;5.57;;;3.20;;
35646;SDS011;28680;45.642;13.756;2023-04-22T11:21:03;4.40;;;3.63;;
35646;SDS011;28680;45.642;13.756;2023-04-22T11:23:30;4.22;;;3.38;;
35646;SDS011;28680;45.642;13.756;2023-04-22T11:26:00;4.68;;;3.65;;
35646;SDS011;28680;45.642;13.756;2023-04-22T11:28:29;4.90;;;3.60;;
35646;SDS011;28680;45.642;13.756;2023-04-22T11:31:02;4.30;;;3.70;;
35646;SDS011;28680;45.642;13.756;2023-04-22T11:33:34;4.05;;;3.10;;
35646;SDS011;28680;45.642;13.756;2023-04-22T11:36:03;7.13;;;3.35;;
35646;SDS011;28680;45.642;13.756;2023-04-22T11:38:33;3.92;;;2.90;;
35646;SDS011;28680;45.642;13.756;2023-04-22T11:40:59;3.83;;;2.88;;
35646;SDS011;28680;45.642;13.756;2023-04-22T11:43:25;3.40;;;2.60;;
35646;SDS011;28680;45.642;13.756;2023-04-22T11:45:53;2.92;;;2.55;;
35646;SDS011;28680;45.642;13.756;2023-04-22T11:48:20;11.00;;;3.20;;
35646;SDS011;28680;45.642;13.756;2023-04-22T11:50:46;3.90;;;2.83;;
35646;SDS011;28680;45.642;13.756;2023-04-22T11:55:46;3.33;;;2.83;;
35646;SDS011;28680;45.642;13.756;2023-04-22T11:58:17;4.05;;;3.00;;
35646;SDS011;28680;45.642;13.756;2023-04-22T12:00:50;3.53;;;3.08;;
35646;SDS011;28680;45.642;13.756;2023-04-22T12:03:21;4.95;;;3.00;;
35646;SDS011;28680;45.642;13.756;2023-04-22T12:08:23;3.88;;;2.67;;
35646;SDS011;28680;45.642;13.756;2023-04-22T12:10:56;4.18;;;2.60;;
35646;SDS011;28680;45.642;13.756;2023-04-22T12:13:30;2.88;;;2.58;;
35646;SDS011;28680;45.642;13.756;2023-04-22T12:15:59;3.95;;;2.75;;
35646;SDS011;28680;45.642;13.756;2023-04-22T12:23:43;6.68;;;2.92;;
35646;SDS011;28680;45.642;13.756;2023-04-22T12:26:13;3.53;;;2.83;;
35646;SDS011;28680;45.642;13.756;2023-04-22T12:28:41;3.75;;;2.60;;
35646;SDS011;28680;45.642;13.756;2023-04-22T12:31:09;3.42;;;2.72;;
35646;SDS011;28680;45.642;13.756;2023-04-22T12:33:36;3.65;;;3.10;;
35646;SDS011;28680;45.642;13.756;2023-04-22T12:36:03;3.47;;;2.92;;
35646;SDS011;28680;45.642;13.756;2023-04-22T12:38:30;3.95;;;3.03;;
35646;SDS011;28680;45.642;13.756;2023-04-22T12:40:57;3.28;;;2.92;;
35646;SDS011;28680;45.642;13.756;2023-04-22T12:43:23;4.07;;;2.95;;
35646;SDS011;28680;45.642;13.756;2023-04-22T12:45:49;4.43;;;3.03;;
35646;SDS011;28680;45.642;13.756;2023-04-22T12:48:15;5.60;;;3.92;;
35646;SDS011;28680;45.642;13.756;2023-04-22T12:50:41;7.53;;;4.85;;
35646;SDS011;28680;45.642;13.756;2023-04-22T12:53:07;13.32;;;7.57;;
35646;SDS011;28680;45.642;13.756;2023-04-22T12:55:34;13.68;;;4.93;;
35646;SDS011;28680;45.642;13.756;2023-04-22T12:58:00;9.98;;;6.25;;
35646;SDS011;28680;45.642;13.756;2023-04-22T13:00:28;9.45;;;5.57;;
35646;SDS011;28680;45.642;13.756;2023-04-22T13:02:54;7.72;;;5.35;;
35646;SDS011;28680;45.642;13.756;2023-04-22T13:05:20;6.35;;;4.50;;
35646;SDS011;28680;45.642;13.756;2023-04-22T13:07:46;6.70;;;4.97;;
35646;SDS011;28680;45.642;13.756;2023-04-22T13:10:13;5.95;;;4.53;;
35646;SDS011;28680;45.642;13.756;2023-04-22T13:12:40;7.32;;;5.57;;
35646;SDS011;28680;45.642;13.756;2023-04-22T13:15:07;7.03;;;4.53;;
35646;SDS011;28680;45.642;13.756;2023-04-22T13:17:36;6.57;;;4.47;;
35646;SDS011;28680;45.642;13.756;2023-04-22T13:20:03;7.13;;;4.28;;
35646;SDS011;28680;45.642;13.756;2023-04-22T13:22:31;7.55;;;4.40;;
35646;SDS011;28680;45.642;13.756;2023-04-22T13:24:57;7.53;;;3.85;;
35646;SDS011;28680;45.642;13.756;2023-04-22T13:27:24;7.65;;;3.70;;
35646;SDS011;28680;45.642;13.756;2023-04-22T13:29:50;5.35;;;3.95;;
35646;SDS011;28680;45.642;13.756;2023-04-22T13:32:16;6.72;;;4.15;;
35646;SDS011;28680;45.642;13.756;2023-04-22T13:34:43;4.28;;;3.70;;
35646;SDS011;28680;45.642;13.756;2023-04-22T13:37:10;4.55;;;3.78;;
35646;SDS011;28680;45.642;13.756;2023-04-22T13:39:38;4.72;;;3.83;;
35646;SDS011;28680;45.642;13.756;2023-04-22T13:42:04;5.05;;;4.00;;
35646;SDS011;28680;45.642;13.756;2023-04-22T13:44:30;5.28;;;4.22;;
35646;SDS011;28680;45.642;13.756;2023-04-22T13:46:56;3.97;;;3.55;;
35646;SDS011;28680;45.642;13.756;2023-04-22T13:49:22;7.38;;;4.45;;
35646;SDS011;28680;45.642;13.756;2023-04-22T13:51:50;5.30;;;3.80;;
35646;SDS011;28680;45.642;13.756;2023-04-22T13:54:15;4.45;;;3.60;;
35646;SDS011;28680;45.642;13.756;2023-04-22T13:56:41;5.07;;;3.40;;
35646;SDS011;28680;45.642;13.756;2023-04-22T13:59:07;4.35;;;3.72;;
35646;SDS011;28680;45.642;13.756;2023-04-22T14:01:33;4.78;;;3.85;;
35646;SDS011;28680;45.642;13.756;2023-04-22T14:03:59;5.90;;;3.83;;
35646;SDS011;28680;45.642;13.756;2023-04-22T14:06:25;5.65;;;3.75;;
35646;SDS011;28680;45.642;13.756;2023-04-22T14:08:51;4.88;;;3.92;;
35646;SDS011;28680;45.642;13.756;2023-04-22T14:11:16;4.20;;;3.70;;
35646;SDS011;28680;45.642;13.756;2023-04-22T14:13:42;6.28;;;4.63;;
35646;SDS011;28680;45.642;13.756;2023-04-22T14:16:09;4.45;;;3.88;;
35646;SDS011;28680;45.642;13.756;2023-04-22T14:18:36;5.30;;;3.65;;
35646;SDS011;28680;45.642;13.756;2023-04-22T14:21:03;5.38;;;3.70;;
35646;SDS011;28680;45.642;13.756;2023-04-22T14:23:32;3.78;;;3.42;;
35646;SDS011;28680;45.642;13.756;2023-04-22T14:25:57;5.25;;;4.22;;
35646;SDS011;28680;45.642;13.756;2023-04-22T14:28:24;4.90;;;4.07;;
35646;SDS011;28680;45.642;13.756;2023-04-22T14:30:50;5.20;;;4.20;;
35646;SDS011;28680;45.642;13.756;2023-04-22T14:33:17;5.60;;;4.30;;
35646;SDS011;28680;45.642;13.756;2023-04-22T14:35:43;6.15;;;4.28;;
35646;SDS011;28680;45.642;13.756;2023-04-22T14:38:10;6.95;;;4.07;;
35646;SDS011;28680;45.642;13.756;2023-04-22T14:40:36;6.00;;;4.30;;
35646;SDS011;28680;45.642;13.756;2023-04-22T14:43:03;5.55;;;4.50;;
35646;SDS011;28680;45.642;13.756;2023-04-22T14:45:31;6.35;;;4.15;;
35646;SDS011;28680;45.642;13.756;2023-04-22T14:47:57;6.32;;;5.13;;
35646;SDS011;28680;45.642;13.756;2023-04-22T14:50:23;5.88;;;4.78;;
35646;SDS011;28680;45.642;13.756;2023-04-22T14:52:50;7.88;;;5.28;;
35646;SDS011;28680;45.642;13.756;2023-04-22T14:55:16;8.43;;;5.18;;